Time;durP1;ratioP1;P1;durP2;ratioP2;P2;SDS_P1;SDS_P2;PMS_P1;PMS_P2;Temp;Humidity;BMP_temperature;BMP_pressure;BME280_temperature;BME280_humidity;BME280_pressure;Samples;Min_cycle;Max_cycle;Signal;HPM_P1;HPM_P2
2024/02/09 00:00:02;;;;;;;10.00;7.30;;;;;;;-128.00;-1.00;-1.00;132530;1292;1005068;-85
2024/02/09 00:03:05;;;;;;;11.40;7.60;;;;;;;-128.00;-1.00;-1.00;132524;1292;1003826;-85
2024/02/09 00:06:06;;;;;;;10.90;7.70;;;;;;;-128.00;-1.00;-1.00;132513;1292;1004223;-85
2024/02/09 00:09:12;;;;;;;9.30;7.30;;;;;;;-128.00;-1.00;-1.00;132517;1292;1003783;-85
2024/02/09 00:12:13;;;;;;;10.70;7.70;;;;;;;-128.00;-1.00;-1.00;132537;1292;1004777;-86
2024/02/09 00:15:18;;;;;;;12.50;7.50;;;;;;;-128.00;-1.00;-1.00;132520;1292;1004681;-87
2024/02/09 00:18:19;;;;;;;10.30;7.50;;;;;;;-128.00;-1.00;-1.00;132522;1292;1004351;-86
2024/02/09 00:21:20;;;;;;;10.50;7.20;;;;;;;-128.00;-1.00;-1.00;132517;1292;1004455;-86
2024/02/09 00:24:22;;;;;;;8.60;6.90;;;;;;;-128.00;-1.00;-1.00;132526;1292;1004147;-87
2024/02/09 00:27:23;;;;;;;9.40;7.30;;;;;;;-128.00;-1.00;-1.00;132522;1292;1005121;-85
2024/02/09 00:30:24;;;;;;;8.90;6.90;;;;;;;-128.00;-1.00;-1.00;132518;1292;1004644;-84
2024/02/09 00:33:25;;;;;;;11.50;8.20;;;;;;;-128.00;-1.00;-1.00;132484;1292;1003960;-86
2024/02/09 00:36:29;;;;;;;10.60;7.20;;;;;;;-128.00;-1.00;-1.00;132526;1292;1003912;-86
2024/02/09 00:39:33;;;;;;;9.30;7.00;;;;;;;-128.00;-1.00;-1.00;132536;1292;1004195;-86
2024/02/09 00:42:34;;;;;;;7.60;6.60;;;;;;;-128.00;-1.00;-1.00;132585;1292;1004672;-83
2024/02/09 00:45:36;;;;;;;8.20;6.60;;;;;;;-128.00;-1.00;-1.00;132589;1292;1005136;-83
2024/02/09 00:48:38;;;;;;;8.40;7.30;;;;;;;-128.00;-1.00;-1.00;132518;1292;1003904;-86
2024/02/09 00:51:39;;;;;;;9.10;7.30;;;;;;;-128.00;-1.00;-1.00;132566;1292;1003491;-85
2024/02/09 00:54:41;;;;;;;8.80;7.10;;;;;;;-128.00;-1.00;-1.00;132557;1292;1004698;-84
2024/02/09 00:57:43;;;;;;;8.90;6.70;;;;;;;-128.00;-1.00;-1.00;132509;1292;1003875;-85
2024/02/09 01:00:44;;;;;;;8.70;7.40;;;;;;;-128.00;-1.00;-1.00;132502;1292;1004057;-85
2024/02/09 01:03:46;;;;;;;8.50;7.00;;;;;;;-128.00;-1.00;-1.00;132485;1292;1005111;-83
2024/02/09 01:06:48;;;;;;;8.70;7.20;;;;;;;-128.00;-1.00;-1.00;132465;1292;1004198;-85
2024/02/09 01:09:49;;;;;;;7.10;6.30;;;;;;;-128.00;-1.00;-1.00;132498;1292;1004560;-84
2024/02/09 02:45:31;;;;;;;16.00;11.70;;;;;;;-128.00;-1.00;-1.00;132509;1292;1004002;-85
2024/02/09 03:05:20;;;;;;;17.10;11.50;;;;;;;-128.00;-1.00;-1.00;132489;1292;1003937;-84
2024/02/09 03:08:22;;;;;;;15.90;10.60;;;;;;;-128.00;-1.00;-1.00;132504;1292;1004352;-84
2024/02/09 03:11:23;;;;;;;14.20;11.50;;;;;;;-128.00;-1.00;-1.00;132523;1292;1004892;-85
2024/02/09 03:14:27;;;;;;;15.90;11.60;;;;;;;-128.00;-1.00;-1.00;132511;1292;1004268;-85
2024/02/09 03:17:28;;;;;;;12.90;10.20;;;;;;;-128.00;-1.00;-1.00;132519;1292;1004475;-84
2024/02/09 03:20:29;;;;;;;13.00;10.40;;;;;;;-128.00;-1.00;-1.00;132620;1292;1003860;-85
2024/02/09 03:23:31;;;;;;;13.70;10.60;;;;;;;-128.00;-1.00;-1.00;132584;1292;1004345;-83
2024/02/09 03:26:32;;;;;;;12.80;10.20;;;;;;;-128.00;-1.00;-1.00;132589;1292;1003803;-84
2024/02/09 03:29:33;;;;;;;13.70;10.70;;;;;;;-128.00;-1.00;-1.00;132573;1292;1004955;-81
2024/02/09 03:32:34;;;;;;;12.10;10.40;;;;;;;-128.00;-1.00;-1.00;132534;1292;1004203;-82
2024/02/09 03:35:35;;;;;;;14.30;9.20;;;;;;;-128.00;-1.00;-1.00;132541;1292;1004018;-83
2024/02/09 03:38:36;;;;;;;12.70;8.80;;;;;;;-128.00;-1.00;-1.00;132533;1292;1004653;-87
2024/02/09 03:41:38;;;;;;;19.10;12.70;;;;;;;-128.00;-1.00;-1.00;132538;1292;1004180;-85
2024/02/09 03:44:39;;;;;;;14.30;10.50;;;;;;;-128.00;-1.00;-1.00;132543;1292;1004814;-86
2024/02/09 03:47:40;;;;;;;13.80;8.40;;;;;;;-128.00;-1.00;-1.00;132538;1292;1004076;-83
2024/02/09 03:50:42;;;;;;;9.30;7.10;;;;;;;-128.00;-1.00;-1.00;132523;1292;1004209;-81
2024/02/09 03:53:43;;;;;;;9.40;7.10;;;;;;;-128.00;-1.00;-1.00;132498;1292;1003907;-84
2024/02/09 03:56:44;;;;;;;10.20;6.70;;;;;;;-128.00;-1.00;-1.00;132510;1292;1004833;-84
2024/02/09 03:59:45;;;;;;;8.70;6.40;;;;;;;-128.00;-1.00;-1.00;132517;1292;1004822;-85
2024/02/09 04:02:49;;;;;;;8.90;6.60;;;;;;;-128.00;-1.00;-1.00;132510;1292;1004006;-86
2024/02/09 04:05:50;;;;;;;7.70;5.60;;;;;;;-128.00;-1.00;-1.00;132535;1292;1004821;-85
2024/02/09 04:08:52;;;;;;;10.80;6.80;;;;;;;-128.00;-1.00;-1.00;132515;1292;1004061;-84
2024/02/09 04:11:54;;;;;;;7.10;5.90;;;;;;;-128.00;-1.00;-1.00;132500;1292;1003774;-84
2024/02/09 04:14:55;;;;;;;6.50;5.60;;;;;;;-128.00;-1.00;-1.00;132461;1292;1004213;-83
2024/02/09 04:17:57;;;;;;;6.40;5.70;;;;;;;-128.00;-1.00;-1.00;132451;1292;1003721;-84
2024/02/09 04:20:59;;;;;;;7.20;4.90;;;;;;;-128.00;-1.00;-1.00;132500;1292;1004345;-83
2024/02/09 04:24:00;;;;;;;6.40;5.00;;;;;;;-128.00;-1.00;-1.00;132475;1292;1005024;-84
2024/02/09 04:27:02;;;;;;;5.60;4.30;;;;;;;-128.00;-1.00;-1.00;132476;1292;1004718;-84
2024/02/09 04:30:04;;;;;;;5.60;4.10;;;;;;;-128.00;-1.00;-1.00;132472;1292;1004952;-83
2024/02/09 04:33:09;;;;;;;5.60;4.30;;;;;;;-128.00;-1.00;-1.00;132482;1292;1004385;-82
2024/02/09 04:36:10;;;;;;;5.40;3.80;;;;;;;-128.00;-1.00;-1.00;132463;1292;1004444;-81
2024/02/09 04:39:11;;;;;;;5.20;4.10;;;;;;;-128.00;-1.00;-1.00;132447;1292;1005017;-82
2024/02/09 04:42:12;;;;;;;3.80;3.40;;;;;;;-128.00;-1.00;-1.00;132453;1292;1004130;-83
2024/02/09 04:45:14;;;;;;;3.70;3.30;;;;;;;-128.00;-1.00;-1.00;132450;1292;1003774;-82
2024/02/09 04:48:15;;;;;;;5.10;3.10;;;;;;;-128.00;-1.00;-1.00;132461;1292;1004707;-84
2024/02/09 04:51:19;;;;;;;3.90;3.40;;;;;;;-128.00;-1.00;-1.00;132458;1292;1004625;-82
2024/02/09 04:54:20;;;;;;;3.60;3.20;;;;;;;-128.00;-1.00;-1.00;132504;1292;1004342;-81
2024/02/09 04:57:21;;;;;;;3.60;2.90;;;;;;;-128.00;-1.00;-1.00;132456;1292;1004452;-84
2024/02/09 05:00:24;;;;;;;3.20;2.80;;;;;;;-128.00;-1.00;-1.00;132475;1292;1003806;-83
2024/02/09 05:03:25;;;;;;;3.80;2.80;;;;;;;-128.00;-1.00;-1.00;132451;1292;1004616;-83
2024/02/09 05:06:26;;;;;;;2.80;2.60;;;;;;;-128.00;-1.00;-1.00;132458;1292;1004800;-81
2024/02/09 05:09:29;;;;;;;3.30;2.70;;;;;;;-128.00;-1.00;-1.00;132471;1292;1004797;-82
2024/02/09 05:12:31;;;;;;;3.20;2.80;;;;;;;-128.00;-1.00;-1.00;132416;1292;1005214;-82
2024/02/09 05:15:33;;;;;;;3.70;3.30;;;;;;;-128.00;-1.00;-1.00;132407;1292;1004531;-80
2024/02/09 05:18:34;;;;;;;3.20;2.70;;;;;;;-128.00;-1.00;-1.00;132337;1292;1003849;-81
2024/02/09 05:21:35;;;;;;;2.80;2.60;;;;;;;-128.00;-1.00;-1.00;132309;1292;1004056;-82
2024/02/09 05:24:37;;;;;;;3.10;2.80;;;;;;;-128.00;-1.00;-1.00;132283;1292;1004193;-79
2024/02/09 05:27:38;;;;;;;2.60;2.40;;;;;;;-128.00;-1.00;-1.00;132255;1292;1004672;-81
2024/02/09 05:30:39;;;;;;;2.40;2.20;;;;;;;-128.00;-1.00;-1.00;132258;1292;1004068;-81
2024/02/09 05:33:40;;;;;;;2.60;2.40;;;;;;;-128.00;-1.00;-1.00;132331;1292;1004235;-81
2024/02/09 05:36:41;;;;;;;2.60;2.40;;;;;;;-128.00;-1.00;-1.00;132340;1292;1003475;-82
2024/02/09 05:39:43;;;;;;;2.80;2.30;;;;;;;-128.00;-1.00;-1.00;132364;1292;1003402;-82
2024/02/09 05:42:47;;;;;;;2.90;2.20;;;;;;;-128.00;-1.00;-1.00;132371;1292;1004141;-81
2024/02/09 05:45:48;;;;;;;3.20;2.70;;;;;;;-128.00;-1.00;-1.00;132395;1292;1004283;-81
2024/02/09 05:48:49;;;;;;;2.70;2.40;;;;;;;-128.00;-1.00;-1.00;132398;1292;1005183;-82
2024/02/09 05:51:52;;;;;;;3.00;2.60;;;;;;;-128.00;-1.00;-1.00;132429;1292;1004421;-81
2024/02/09 05:54:53;;;;;;;2.70;2.50;;;;;;;-128.00;-1.00;-1.00;132175;1292;1003866;-83
2024/02/09 05:57:55;;;;;;;3.20;2.20;;;;;;;-128.00;-1.00;-1.00;132430;1292;1004108;-80
2024/02/09 06:00:56;;;;;;;2.60;2.30;;;;;;;-128.00;-1.00;-1.00;132494;1292;1004306;-81
2024/02/09 06:03:57;;;;;;;2.60;2.40;;;;;;;-128.00;-1.00;-1.00;132502;1292;1004276;-82
2024/02/09 06:06:59;;;;;;;3.10;2.50;;;;;;;-128.00;-1.00;-1.00;132494;1292;1004224;-80
2024/02/09 06:10:00;;;;;;;2.90;2.30;;;;;;;-128.00;-1.00;-1.00;132502;1292;1003624;-84
2024/02/09 06:13:01;;;;;;;5.00;2.50;;;;;;;-128.00;-1.00;-1.00;132444;1292;1004931;-84
2024/02/09 06:16:03;;;;;;;3.00;1.80;;;;;;;-128.00;-1.00;-1.00;132386;1292;1004467;-83
2024/02/09 06:19:04;;;;;;;2.70;2.20;;;;;;;-128.00;-1.00;-1.00;132442;1292;1004771;-82
2024/02/09 06:22:05;;;;;;;2.50;2.30;;;;;;;-128.00;-1.00;-1.00;132393;1292;1004732;-81
2024/02/09 06:25:06;;;;;;;2.00;1.90;;;;;;;-128.00;-1.00;-1.00;132381;1292;1003487;-84
2024/02/09 06:28:07;;;;;;;2.10;1.90;;;;;;;-128.00;-1.00;-1.00;132462;1292;1004179;-83
2024/02/09 06:31:09;;;;;;;3.70;1.90;;;;;;;-128.00;-1.00;-1.00;132421;1292;1003118;-84
2024/02/09 06:34:10;;;;;;;3.10;2.10;;;;;;;-128.00;-1.00;-1.00;132432;1292;1004323;-82
2024/02/09 06:37:11;;;;;;;1.90;1.80;;;;;;;-128.00;-1.00;-1.00;132472;1292;1004864;-84
2024/02/09 06:40:13;;;;;;;2.20;2.00;;;;;;;-128.00;-1.00;-1.00;132438;1292;1003323;-83
2024/02/09 06:43:18;;;;;;;1.80;1.70;;;;;;;-128.00;-1.00;-1.00;132454;1292;1004090;-84
2024/02/09 06:46:21;;;;;;;2.00;1.90;;;;;;;-128.00;-1.00;-1.00;132402;1292;1004560;-84
2024/02/09 06:49:24;;;;;;;2.50;2.30;;;;;;;-128.00;-1.00;-1.00;132368;1292;1005337;-85
2024/02/09 06:52:31;;;;;;;2.40;2.20;;;;;;;-128.00;-1.00;-1.00;132403;1292;1004500;-84
2024/02/09 06:55:32;;;;;;;3.10;2.10;;;;;;;-128.00;-1.00;-1.00;132415;1280;1003627;-83
2024/02/09 06:58:33;;;;;;;2.20;2.00;;;;;;;-128.00;-1.00;-1.00;132384;1292;1004297;-85
2024/02/09 07:01:38;;;;;;;6.80;2.30;;;;;;;-128.00;-1.00;-1.00;132401;1292;1003580;-84
2024/02/09 07:04:40;;;;;;;;;;;;;;;-128.00;-1.00;-1.00;132376;1292;1004294;-84
2024/02/09 07:07:43;;;;;;;4.10;2.10;;;;;;;-128.00;-1.00;-1.00;132355;1292;1004246;-83
2024/02/09 07:10:44;;;;;;;2.00;1.80;;;;;;;-128.00;-1.00;-1.00;132364;1292;1004388;-83
2024/02/09 07:13:46;;;;;;;4.00;1.90;;;;;;;-128.00;-1.00;-1.00;132410;1292;1004725;-84
2024/02/09 07:16:47;;;;;;;2.80;1.70;;;;;;;-128.00;-1.00;-1.00;132392;1292;1003665;-84
2024/02/09 07:19:48;;;;;;;1.90;1.80;;;;;;;-128.00;-1.00;-1.00;132403;1292;1004772;-84
2024/02/09 07:22:49;;;;;;;2.10;1.60;;;;;;;-128.00;-1.00;-1.00;132413;1292;1004231;-84
2024/02/09 07:25:51;;;;;;;2.00;1.70;;;;;;;-128.00;-1.00;-1.00;132404;1292;1004046;-84
2024/02/09 07:28:52;;;;;;;2.20;1.90;;;;;;;-128.00;-1.00;-1.00;132464;1292;1003978;-84
2024/02/09 07:31:53;;;;;;;2.50;2.00;;;;;;;-128.00;-1.00;-1.00;132454;1292;1004691;-85
2024/02/09 07:34:54;;;;;;;1.60;1.50;;;;;;;-128.00;-1.00;-1.00;132465;1292;1003512;-84
2024/02/09 07:37:57;;;;;;;3.20;1.70;;;;;;;-128.00;-1.00;-1.00;132456;1292;1003927;-84
2024/02/09 07:40:58;;;;;;;1.80;1.70;;;;;;;-128.00;-1.00;-1.00;132440;1292;1003946;-84
2024/02/09 07:44:01;;;;;;;3.50;1.70;;;;;;;-128.00;-1.00;-1.00;132420;1292;1004148;-84
2024/02/09 07:47:04;;;;;;;2.90;1.80;;;;;;;-128.00;-1.00;-1.00;132404;1292;1004863;-83
2024/02/09 07:50:05;;;;;;;2.00;1.90;;;;;;;-128.00;-1.00;-1.00;132383;1292;1004313;-85
2024/02/09 07:53:07;;;;;;;2.00;1.80;;;;;;;-128.00;-1.00;-1.00;132361;1292;1004203;-85
2024/02/09 07:56:08;;;;;;;4.30;2.10;;;;;;;-128.00;-1.00;-1.00;132434;1292;1003878;-84
2024/02/09 07:59:09;;;;;;;1.60;1.50;;;;;;;-128.00;-1.00;-1.00;132400;1292;1005259;-85
2024/02/09 08:02:10;;;;;;;1.90;1.70;;;;;;;-128.00;-1.00;-1.00;132420;1292;1004386;-84
2024/02/09 08:05:17;;;;;;;2.10;1.90;;;;;;;-128.00;-1.00;-1.00;132424;1292;1003811;-85
2024/02/09 08:08:19;;;;;;;2.50;2.30;;;;;;;-128.00;-1.00;-1.00;132450;1292;1004417;-84
2024/02/09 08:11:20;;;;;;;2.60;1.90;;;;;;;-128.00;-1.00;-1.00;132391;1292;1004254;-83
2024/02/09 08:14:22;;;;;;;4.40;2.40;;;;;;;-128.00;-1.00;-1.00;132392;1292;1005286;-84
2024/02/09 08:17:23;;;;;;;4.00;1.90;;;;;;;-128.00;-1.00;-1.00;132397;1292;1003971;-83
2024/02/09 08:20:24;;;;;;;2.30;1.90;;;;;;;-128.00;-1.00;-1.00;132273;1292;1004456;-83
2024/02/09 08:23:27;;;;;;;1.60;1.50;;;;;;;-128.00;-1.00;-1.00;132453;1292;1004586;-83
2024/02/09 08:26:28;;;;;;;2.80;1.50;;;;;;;-128.00;-1.00;-1.00;132428;1292;1003958;-81
2024/02/09 08:29:29;;;;;;;1.50;1.40;;;;;;;-128.00;-1.00;-1.00;132464;1292;1004022;-84
2024/02/09 08:32:30;;;;;;;6.50;2.60;;;;;;;-128.00;-1.00;-1.00;132451;1292;1004235;-81
2024/02/09 08:35:31;;;;;;;1.80;1.60;;;;;;;-128.00;-1.00;-1.00;132484;1292;1004473;-83
2024/02/09 08:38:33;;;;;;;2.70;2.00;;;;;;;-128.00;-1.00;-1.00;132518;1292;1004963;-82
2024/02/09 08:41:34;;;;;;;3.10;2.00;;;;;;;-128.00;-1.00;-1.00;132546;1292;1003977;-84
2024/02/09 08:44:35;;;;;;;10.90;2.60;;;;;;;-128.00;-1.00;-1.00;132499;1292;1003557;-84
2024/02/09 08:47:37;;;;;;;1.70;1.60;;;;;;;-128.00;-1.00;-1.00;132509;1292;1005078;-84
2024/02/09 08:50:38;;;;;;;2.40;1.90;;;;;;;-128.00;-1.00;-1.00;132471;1292;1004172;-85
2024/02/09 08:53:39;;;;;;;2.00;1.80;;;;;;;-128.00;-1.00;-1.00;132411;1292;1003948;-85
2024/02/09 08:56:41;;;;;;;1.90;1.70;;;;;;;-128.00;-1.00;-1.00;132424;1292;1004214;-83
2024/02/09 08:59:42;;;;;;;3.30;1.60;;;;;;;-128.00;-1.00;-1.00;132424;1292;1004269;-84
2024/02/09 09:02:43;;;;;;;3.00;1.60;;;;;;;-128.00;-1.00;-1.00;132397;1292;1003415;-85
2024/02/09 09:05:47;;;;;;;2.10;1.90;;;;;;;-128.00;-1.00;-1.00;132431;1292;1003972;-83
2024/02/09 09:08:48;;;;;;;2.30;2.10;;;;;;;-128.00;-1.00;-1.00;132420;1292;1004550;-83
2024/02/09 09:11:49;;;;;;;2.70;2.50;;;;;;;-128.00;-1.00;-1.00;132404;1292;1004304;-83
2024/02/09 09:14:51;;;;;;;2.90;2.60;;;;;;;-128.00;-1.00;-1.00;132433;1292;1004346;-82
2024/02/09 09:17:52;;;;;;;2.80;2.50;;;;;;;-128.00;-1.00;-1.00;132404;1292;1004166;-79
2024/02/09 09:20:53;;;;;;;3.20;2.80;;;;;;;-128.00;-1.00;-1.00;132425;1292;1004037;-82
2024/02/09 09:23:54;;;;;;;3.30;3.00;;;;;;;-128.00;-1.00;-1.00;132395;1292;1005059;-81
2024/02/09 09:26:56;;;;;;;8.90;4.00;;;;;;;-128.00;-1.00;-1.00;132382;1292;1003891;-82
2024/02/09 09:29:57;;;;;;;5.20;4.70;;;;;;;-128.00;-1.00;-1.00;132350;1292;1005142;-81
2024/02/09 09:32:58;;;;;;;4.50;4.10;;;;;;;-128.00;-1.00;-1.00;132390;1292;1004336;-80
2024/02/09 09:36:00;;;;;;;4.20;3.80;;;;;;;-128.00;-1.00;-1.00;132337;1292;1004091;-80
2024/02/09 09:39:02;;;;;;;5.70;3.80;;;;;;;-128.00;-1.00;-1.00;132345;1292;1004664;-80
2024/02/09 09:42:05;;;;;;;6.00;3.60;;;;;;;-128.00;-1.00;-1.00;132385;1292;1005205;-81
2024/02/09 09:45:08;;;;;;;5.70;3.80;;;;;;;-128.00;-1.00;-1.00;132339;1292;1004331;-80
2024/02/09 09:48:11;;;;;;;4.30;3.60;;;;;;;-128.00;-1.00;-1.00;132380;1292;1004877;-81
2024/02/09 09:51:13;;;;;;;6.40;3.50;;;;;;;-128.00;-1.00;-1.00;132434;1292;1003834;-81
2024/02/09 09:54:14;;;;;;;4.30;3.90;;;;;;;-128.00;-1.00;-1.00;132437;1292;1004091;-79
2024/02/09 09:57:15;;;;;;;6.60;4.30;;;;;;;-128.00;-1.00;-1.00;132441;1292;1004266;-79
2024/02/09 10:00:16;;;;;;;4.70;4.10;;;;;;;-128.00;-1.00;-1.00;132339;1292;1004647;-80
2024/02/09 10:03:17;;;;;;;5.20;4.60;;;;;;;-128.00;-1.00;-1.00;132423;1292;1003097;-79
2024/02/09 10:06:19;;;;;;;4.80;4.20;;;;;;;-128.00;-1.00;-1.00;132454;1292;1004894;-80
2024/02/09 10:09:20;;;;;;;7.80;4.70;;;;;;;-128.00;-1.00;-1.00;132406;1292;1005048;-81
2024/02/09 10:12:22;;;;;;;7.90;5.10;;;;;;;-128.00;-1.00;-1.00;132364;1292;1004398;-79
2024/02/09 10:15:23;;;;;;;5.90;5.00;;;;;;;-128.00;-1.00;-1.00;132338;1292;1004400;-80
2024/02/09 10:18:25;;;;;;;9.30;5.40;;;;;;;-128.00;-1.00;-1.00;132364;1292;1003814;-80
2024/02/09 10:21:28;;;;;;;7.60;6.60;;;;;;;-128.00;-1.00;-1.00;132398;1292;1004680;-80
2024/02/09 10:24:29;;;;;;;8.60;6.60;;;;;;;-128.00;-1.00;-1.00;132376;1292;1004409;-80
2024/02/09 10:27:31;;;;;;;7.70;6.80;;;;;;;-128.00;-1.00;-1.00;132335;1292;1004984;-79
2024/02/09 10:30:32;;;;;;;8.30;7.30;;;;;;;-128.00;-1.00;-1.00;132384;1292;1003802;-80
2024/02/09 10:33:34;;;;;;;8.60;6.90;;;;;;;-128.00;-1.00;-1.00;132351;1292;1003998;-80
2024/02/09 10:36:37;;;;;;;7.60;6.80;;;;;;;-128.00;-1.00;-1.00;132394;1292;1003725;-80
2024/02/09 10:39:39;;;;;;;8.90;7.90;;;;;;;-128.00;-1.00;-1.00;132442;1292;1003648;-79
2024/02/09 10:42:40;;;;;;;8.60;7.60;;;;;;;-128.00;-1.00;-1.00;132407;1292;1004007;-80
2024/02/09 10:45:42;;;;;;;8.70;7.80;;;;;;;-128.00;-1.00;-1.00;132427;1292;1004710;-80
2024/02/09 10:48:43;;;;;;;11.10;8.30;;;;;;;-128.00;-1.00;-1.00;132404;1292;1004510;-80
2024/02/09 10:51:44;;;;;;;10.60;8.70;;;;;;;-128.00;-1.00;-1.00;132385;1292;1004145;-83
2024/02/09 10:54:47;;;;;;;9.60;8.50;;;;;;;-128.00;-1.00;-1.00;132429;1292;1003537;-82
2024/02/09 10:57:49;;;;;;;10.00;8.60;;;;;;;-128.00;-1.00;-1.00;132428;1292;1003755;-83
2024/02/09 11:00:51;;;;;;;10.90;9.20;;;;;;;-128.00;-1.00;-1.00;132411;1292;1004976;-83
2024/02/09 11:03:53;;;;;;;11.90;8.70;;;;;;;-128.00;-1.00;-1.00;132494;1292;1004243;-82
2024/02/09 11:06:54;;;;;;;10.80;8.50;;;;;;;-128.00;-1.00;-1.00;132484;1292;1004098;-84
2024/02/09 11:09:56;;;;;;;9.90;8.60;;;;;;;-128.00;-1.00;-1.00;132555;1292;1004775;-83
2024/02/09 11:12:57;;;;;;;9.30;7.60;;;;;;;-128.00;-1.00;-1.00;132562;1292;1004363;-79
2024/02/09 11:16:01;;;;;;;11.60;9.30;;;;;;;-128.00;-1.00;-1.00;132550;1292;1005020;-82
2024/02/09 11:19:02;;;;;;;9.50;8.00;;;;;;;-128.00;-1.00;-1.00;132543;1292;1003872;-81
2024/02/09 11:22:04;;;;;;;12.20;8.40;;;;;;;-128.00;-1.00;-1.00;132546;1292;1004025;-82
2024/02/09 11:25:06;;;;;;;8.80;7.90;;;;;;;-128.00;-1.00;-1.00;132548;1292;1004921;-81
2024/02/09 11:28:07;;;;;;;8.60;7.40;;;;;;;-128.00;-1.00;-1.00;132559;1292;1004404;-82
2024/02/09 11:31:10;;;;;;;7.70;6.80;;;;;;;-128.00;-1.00;-1.00;132549;1292;1003909;-81
2024/02/09 11:34:11;;;;;;;12.50;8.60;;;;;;;-128.00;-1.00;-1.00;132507;1292;1004645;-80
2024/02/09 11:37:14;;;;;;;8.40;7.60;;;;;;;-128.00;-1.00;-1.00;132482;1292;1004215;-80
2024/02/09 11:40:16;;;;;;;8.80;7.40;;;;;;;-128.00;-1.00;-1.00;132500;1292;1004433;-81
2024/02/09 11:43:19;;;;;;;9.10;7.30;;;;;;;-128.00;-1.00;-1.00;132494;1292;1003510;-79
2024/02/09 11:46:21;;;;;;;12.20;7.60;;;;;;;-128.00;-1.00;-1.00;132485;1292;1005282;-79
2024/02/09 11:49:23;;;;;;;7.90;7.10;;;;;;;-128.00;-1.00;-1.00;132499;1292;1003740;-80
2024/02/09 11:52:27;;;;;;;7.70;7.00;;;;;;;-128.00;-1.00;-1.00;132480;1292;1004111;-80
2024/02/09 11:55:29;;;;;;;8.10;7.10;;;;;;;-128.00;-1.00;-1.00;132523;1292;1004732;-81
2024/02/09 11:58:30;;;;;;;8.50;7.50;;;;;;;-128.00;-1.00;-1.00;132559;1292;1003972;-80
2024/02/09 12:01:31;;;;;;;13.10;7.90;;;;;;;-128.00;-1.00;-1.00;132537;1292;1004045;-82
2024/02/09 12:04:32;;;;;;;10.40;7.30;;;;;;;-128.00;-1.00;-1.00;132488;1292;1004974;-83
2024/02/09 12:07:33;;;;;;;10.20;7.60;;;;;;;-128.00;-1.00;-1.00;132504;1292;1003692;-82
2024/02/09 12:10:35;;;;;;;8.00;7.20;;;;;;;-128.00;-1.00;-1.00;132482;1292;1003905;-80
2024/02/09 12:13:38;;;;;;;9.80;7.90;;;;;;;-128.00;-1.00;-1.00;132253;1292;1004164;-82
2024/02/09 12:16:39;;;;;;;8.40;7.30;;;;;;;-128.00;-1.00;-1.00;132383;1292;1004211;-83
2024/02/09 12:19:42;;;;;;;10.10;8.20;;;;;;;-128.00;-1.00;-1.00;132396;1292;1004014;-82
2024/02/09 12:22:45;;;;;;;9.40;8.00;;;;;;;-128.00;-1.00;-1.00;132376;1292;1005032;-83
2024/02/09 12:25:47;;;;;;;11.80;7.60;;;;;;;-128.00;-1.00;-1.00;132378;1292;1003706;-85
2024/02/09 12:28:49;;;;;;;10.70;8.40;;;;;;;-128.00;-1.00;-1.00;132371;1292;1003877;-81
2024/02/09 12:31:50;;;;;;;9.40;8.40;;;;;;;-128.00;-1.00;-1.00;132384;1292;1005005;-81
2024/02/09 12:34:54;;;;;;;10.00;8.30;;;;;;;-128.00;-1.00;-1.00;132411;1292;1003836;-84
2024/02/09 12:37:57;;;;;;;11.20;8.90;;;;;;;-128.00;-1.00;-1.00;132453;1292;1003401;-85
2024/02/09 12:40:59;;;;;;;10.00;7.30;;;;;;;-128.00;-1.00;-1.00;132455;1292;1003833;-85
2024/02/09 12:44:12;;;;;;;11.70;8.30;;;;;;;-128.00;-1.00;-1.00;132459;1292;1004846;-82
2024/02/09 12:47:13;;;;;;;14.10;9.40;;;;;;;-128.00;-1.00;-1.00;132443;1292;1004849;-83
2024/02/09 12:50:17;;;;;;;12.40;10.50;;;;;;;-128.00;-1.00;-1.00;132472;1292;1003147;-83
2024/02/09 12:53:23;;;;;;;14.10;10.70;;;;;;;-128.00;-1.00;-1.00;132432;1292;1003994;-82
2024/02/09 12:56:27;;;;;;;13.20;10.80;;;;;;;-128.00;-1.00;-1.00;132378;1292;1004616;-83
2024/02/09 12:59:28;;;;;;;13.60;10.60;;;;;;;-128.00;-1.00;-1.00;132396;1292;1004872;-84
2024/02/09 13:02:29;;;;;;;13.50;10.50;;;;;;;-128.00;-1.00;-1.00;132434;1292;1004798;-83
2024/02/09 13:05:31;;;;;;;16.10;10.00;;;;;;;-128.00;-1.00;-1.00;132396;1292;1004343;-82
2024/02/09 13:08:32;;;;;;;12.50;10.00;;;;;;;-128.00;-1.00;-1.00;132400;1292;1004166;-82
2024/02/09 13:11:38;;;;;;;12.80;10.50;;;;;;;-128.00;-1.00;-1.00;132447;1292;1004146;-83
2024/02/09 13:14:39;;;;;;;12.30;10.50;;;;;;;-128.00;-1.00;-1.00;132407;1292;1004803;-80
2024/02/09 13:17:41;;;;;;;12.70;11.20;;;;;;;-128.00;-1.00;-1.00;132388;1292;1003703;-82
2024/02/09 13:20:45;;;;;;;13.20;11.50;;;;;;;-128.00;-1.00;-1.00;132352;1292;1004255;-83
2024/02/09 13:23:46;;;;;;;17.30;11.00;;;;;;;-128.00;-1.00;-1.00;132348;1292;1004036;-83
2024/02/09 13:26:50;;;;;;;14.10;12.10;;;;;;;-128.00;-1.00;-1.00;132338;1292;1004039;-83
2024/02/09 13:29:51;;;;;;;13.50;11.90;;;;;;;-128.00;-1.00;-1.00;132332;1292;1004001;-82
2024/02/09 13:32:52;;;;;;;15.00;11.70;;;;;;;-128.00;-1.00;-1.00;132365;1292;1003999;-82
2024/02/09 13:35:54;;;;;;;16.60;12.10;;;;;;;-128.00;-1.00;-1.00;132292;1292;1004098;-81
2024/02/09 13:38:56;;;;;;;17.10;12.50;;;;;;;-128.00;-1.00;-1.00;132416;1292;1003598;-84
2024/02/09 13:41:58;;;;;;;13.90;12.00;;;;;;;-128.00;-1.00;-1.00;132415;1292;1003955;-84
2024/02/09 13:44:59;;;;;;;17.40;12.60;;;;;;;-128.00;-1.00;-1.00;132473;1292;1003157;-82
2024/02/09 13:48:02;;;;;;;21.40;15.30;;;;;;;-128.00;-1.00;-1.00;132479;1292;1004067;-79
2024/02/09 13:52:20;;;;;;;16.80;13.30;;;;;;;;;;134041;1301;545253;-81
2024/02/09 13:55:23;;;;;;;16.50;13.30;;;;;;;;;;136804;1280;23249;-79
2024/02/09 13:58:26;;;;;;;16.10;14.30;;;;;;;;;;136731;1280;22239;-78
2024/02/09 14:01:29;;;;;;;20.10;14.60;;;;;;;;;;136823;1280;22218;-78
2024/02/09 14:04:32;;;;;;;19.20;16.30;;;;;;;;;;137128;1274;146076;-81
2024/02/09 14:07:34;;;;;;;20.20;16.10;;;;;;;;;;137359;1274;22097;-80
2024/02/09 14:10:39;;;;;;;23.50;17.70;;;;;;;;;;137396;1274;22282;-81
2024/02/09 14:13:42;;;;;;;22.80;17.80;;;;;;;;;;137407;1274;22313;-81
2024/02/09 14:16:45;;;;;;;20.80;16.30;;;;;;;;;;137430;1274;22311;-81
2024/02/09 14:19:47;;;;;;;23.70;19.00;;;;;;;;;;137423;1274;22626;-80
2024/02/09 14:22:50;;;;;;;25.50;18.90;;;;;;;;;;137433;1274;22223;-82
2024/02/09 14:25:56;;;;;;;32.10;22.50;;;;;;;;;;137412;1259;22224;-81
2024/02/09 14:29:00;;;;;;;31.90;23.20;;;;;;;;;;137378;1274;22142;-81
2024/02/09 14:32:04;;;;;;;32.60;22.10;;;;;;;;;;137419;1274;22260;-81
2024/02/09 14:35:06;;;;;;;34.90;24.30;;;;;;;;;;137470;1274;22336;-81
2024/02/09 14:38:09;;;;;;;42.40;26.60;;;;;;;;;;137448;1274;22131;-81
2024/02/09 14:41:11;;;;;;;38.80;27.90;;;;;;;;;;137811;1271;22252;-81
2024/02/09 14:44:14;;;;;;;35.20;25.00;;;;;;;;;;137458;1271;22353;-81
2024/02/09 14:47:17;;;;;;;32.70;24.80;;;;;;;;;;137557;1271;22497;-81
2024/02/09 14:50:19;;;;;;;33.70;23.80;;;;;;;;;;137754;1271;22400;-81
2024/02/09 14:53:22;;;;;;;38.20;25.30;;;;;;;;;;137732;1271;22296;-81
2024/02/09 14:56:25;;;;;;;38.50;24.50;;;;;;;;;;137752;1271;22218;-82
2024/02/09 14:59:28;;;;;;;42.80;27.00;;;;;;;;;;137721;1271;22250;-81
2024/02/09 15:02:31;;;;;;;42.60;27.20;;;;;;;;;;137738;1271;22214;-81
2024/02/09 15:05:34;;;;;;;37.00;24.90;;;;;;;;;;137777;1266;22344;-82
2024/02/09 15:08:36;;;;;;;43.80;26.80;;;;;;;;;;137736;1271;22190;-81
2024/02/09 15:11:41;;;;;;;47.00;27.90;;;;;;;;;;137793;1271;22183;-81
2024/02/09 15:14:43;;;;;;;45.90;28.60;;;;;;;;;;137853;1271;22423;-81
2024/02/09 15:17:46;;;;;;;41.80;26.80;;;;;;;;;;137780;1271;22653;-82
2024/02/09 15:20:50;;;;;;;46.60;27.90;;;;;;;;;;137811;1271;22185;-81
2024/02/09 15:23:54;;;;;;;46.00;28.40;;;;;;;;;;137800;1271;22231;-81
2024/02/09 15:26:56;;;;;;;46.40;29.80;;;;;;;;;;137777;1271;22283;-82
2024/02/09 15:29:59;;;;;;;54.40;33.20;;;;;;;;;;137835;1271;22245;-81
2024/02/09 15:33:01;;;;;;;54.60;33.40;;;;;;;;;;137750;1271;22241;-82
2024/02/09 15:36:04;;;;;;;47.80;30.70;;;;;;;;;;137811;1271;22262;-82
2024/02/09 15:39:07;;;;;;;52.70;31.90;;;;;;;;;;137729;1271;22688;-82
2024/02/09 15:42:12;;;;;;;53.20;31.40;;;;;;;;;;137612;1271;22708;-81
2024/02/09 15:45:14;;;;;;;47.00;31.20;;;;;;;;;;137812;1271;22506;-83
2024/02/09 15:48:17;;;;;;;48.50;30.60;;;;;;;;;;137841;1271;22653;-82
2024/02/09 15:51:23;;;;;;;51.50;30.80;;;;;;;;;;137785;1266;22565;-82
2024/02/09 15:54:25;;;;;;;47.20;31.70;;;;;;;;;;137781;1271;22319;-83
2024/02/09 15:57:28;;;;;;;54.60;32.00;;;;;;;;;;137802;1271;22212;-82
2024/02/09 16:00:31;;;;;;;53.60;33.20;;;;;;;;;;137390;1271;22593;-81
2024/02/09 16:03:33;;;;;;;55.00;33.40;;;;;;;;;;137403;1271;22520;-82
2024/02/09 16:06:36;;;;;;;52.50;33.90;;;;;;;;;;137767;1267;22408;-83
2024/02/09 16:09:38;;;;;;;55.20;34.60;;;;;;;;;;137447;1267;22238;-83